Nearby METAR Reports

 

KPMP - Pompano Beach, Florida, USA
Distance from station: NNW 3mi, 5km
Updated: 07/29/2021 7:53pm
Clear
Clear
 Wind from NNW
Wind: NNW 10 mph , 17 km/h
Temperature: 79°F , 26°C
Dew Point: 72°F , 22°C
Humidity: 79%
Barometer: 30.04 inHg , 1017.3 hPa
Clouds: Clear
Visibility: 10 miles , 16 km
2021/07/29 23:53 KPMP 292353Z 33009KT 10SM CLR 26/22 A3004 RMK AO2 WSHFT 2245 SLP174 T02610217 10328 20261 53011
KFXE - Ft Lauderd/Exec, Florida, USA
Distance from station: W 6mi, 9km
Updated: 07/29/2021 7:53pm
Partly cloudy
Partly cloudy
 Wind from NNW
Wind: NNW 8 mph , 13 km/h
Temperature: 79°F , 26°C
Dew Point: 72°F , 22°C
Humidity: 79%
Barometer: 30.04 inHg , 1017.3 hPa
Clouds: Partly cloudy
Visibility: 10 miles , 16 km
Cloud details: Partly cloudy 6500 ft
2021/07/29 23:53 KFXE 292353Z 34007KT 10SM SCT065 26/22 A3004 RMK AO2 TSE2259 SLP174 60004 T02560222 10339 20250 53012
 
KFLL - Ft Lauderd/Holly, Florida, USA
Distance from station: SSW 11mi, 17km
Updated: 07/29/2021 7:55pm
Mostly cloudy
Mostly cloudy
 Wind from NW
Wind: NW 5 mph , 7 km/h
Temperature: 81°F , 27°C
Heat Index: 86°F , 30°C
Dew Point: 73°F , 23°C
Humidity: 79%
Barometer: 30.03 inHg , 1016.9 hPa
Clouds: Mostly cloudy
Visibility: 10 miles , 16 km
Cloud details: Few Clouds 2800 ft
Few Clouds 6000 ft
Partly cloudy 12000 ft
Mostly cloudy 25000 ft
2021/07/29 23:55 KFLL 292355Z 32004KT 10SM FEW028 FEW060 SCT120 BKN250 27/23 A3003 RMK CB DSNT SW
KBCT - Boca Raton, Florida, USA
Distance from station: N 12mi, 19km
Updated: 07/29/2021 7:51pm
Partly cloudy
Partly cloudy
 Wind from NW
Wind: NW 8 mph , 13 km/h
Temperature: 79°F , 26°C
Dew Point: 75°F , 24°C
Humidity: 89%
Barometer: 30.05 inHg , 1017.6 hPa
Clouds: Partly cloudy
Visibility: 7 miles , 11 km
Cloud details: Partly cloudy 2600 ft
2021/07/29 23:51 KBCT 292351Z 32007KT 7SM SCT026 26/24 A3005
 
KHWO - Hollywood, Florida, USA
Distance from station: SSW 17mi, 27km
Updated: 07/29/2021 7:53pm
Overcast
Overcast
 Wind from NNW
Wind: NNW 5 mph , 7 km/h
Temperature: 79°F , 26°C
Dew Point: 72°F , 22°C
Humidity: 79%
Barometer: 30.05 inHg , 1017.6 hPa
Clouds: Overcast
Visibility: 10 miles , 16 km
Cloud details: Few Clouds 4300 ft
Overcast 10000 ft
2021/07/29 23:53 KHWO 292353Z 33004KT 10SM FEW043 OVC100 26/22 A3005 RMK AO2 LTG DSNT SW RAB16E38 SLP175 P0003 60003 T02610217 10328 20261 53014
KOPF - Miami/Opa Locka, Florida, USA
Distance from station: SSW 24mi, 38km
Updated: 07/29/2021 7:53pm
Light rain, Few clouds
Light rain, Few clouds
 Wind from NNW
Wind: NNW 3 mph , 6 km/h
Temperature: 81°F , 27°C
Heat Index: 85°F , 29°C
Dew Point: 70°F , 21°C
Humidity: 70%
Barometer: 30.05 inHg , 1017.6 hPa
Summary: Light rain
Clouds: Few Clouds
Visibility: 10 miles , 16 km
Cloud details: Few Clouds 5500 ft
Few Clouds 11000 ft
2021/07/29 23:53 KOPF 292353Z 34003KT 10SM -RA FEW055 FEW110 27/21 A3005 RMK AO2 LTG DSNT SW RAB47 SLP176 P0000 60000 T02720211 10322 20272 53016
 
KMIA - Miami, Florida, USA
Distance from station: SSW 31mi, 50km
Updated: 07/29/2021 7:53pm
Heavy rain, Overcast
Heavy rain, Overcast
 Wind from varies
Wind: varies 6 mph , 9 km/h
Temperature: 81°F , 27°C
Heat Index: 87°F , 31°C
Dew Point: 75°F , 24°C
Humidity: 84%
Barometer: 30.05 inHg , 1017.6 hPa
Summary: Heavy rain
Clouds: Overcast
Visibility: 7 miles , 11 km
Cloud details: Few Clouds 2000 ft
Mostly cloudy 3300 ft
Mostly cloudy 7000 ft
Overcast 25000 ft
2021/07/29 23:53 KMIA 292353Z VRB05KT 7SM +RA FEW020CB BKN033 BKN070 OVC250 27/24 A3005 RMK AO2 LTG DSNT W RAB51 SLP175 CB NW-NE MOV S P0002 60054 T02720239 10322 20250 53017 $
KPBI - West Palm Beach, Florida, USA
Distance from station: N 33mi, 52km
Updated: 07/29/2021 7:53pm
Light thunderstorm, Rain, Mostly cloudy
Light thunderstorm, Rain, Mostly cloudy
 Wind from WNW
Wind: WNW 9 mph , 15 km/h
Temperature: 75°F , 24°C
Dew Point: 72°F , 22°C
Humidity: 89%
Barometer: 30.08 inHg , 1018.6 hPa
Summary: Light thunderstorm, Rain
Clouds: Mostly cloudy
Visibility: 10 miles , 16 km
Cloud details: Partly cloudy 2100 ft
Mostly cloudy 4000 ft
Mostly cloudy 7000 ft
2021/07/29 23:53 KPBI 292353Z 30008KT 10SM -TSRA SCT021 BKN040CB BKN070 24/22 A3008 RMK AO2 WSHFT 2251 LTG DSNT N AND W RAB20 SLP184 OCNL LTGICCG N W TS N W MOV E CB DSNT ALQDS P0000 60000 T02390217 10339 20239 53027
 
KTMB - Miami/Tamiami, Florida, USA
Distance from station: SSW 44mi, 71km
Updated: 07/29/2021 8:02pm
Mostly cloudy
Mostly cloudy
 Wind from NNW
Wind: NNW 15 mph , 24 km/h, Gust: 20 mph , 31 km/h
Temperature: 82°F , 28°C
Heat Index: 87°F , 31°C
Dew Point: 73°F , 23°C
Humidity: 74%
Barometer: 30.04 inHg , 1017.3 hPa
Clouds: Mostly cloudy
Visibility: 10 miles , 16 km
Cloud details: Mostly cloudy 2800 ft
Mostly cloudy 4100 ft
2021/07/30 00:02 KTMB 300002Z 34013G17KT 10SM BKN028 BKN041 28/23 A3004 RMK AO2 LTG DSNT SW AND W T02830228